Terminal Aerodrome Forecast
Issued by NWS Cleveland, OH

Home | Current Version | Previous Version | Graphics & Text | Print | Product List | Glossary Off
Versions: 1 2 3 4 5 6 7 8 9 10 11 12 13 14 15

000
FTUS41 KCLE 221700
TAFCAK
TAF
KCAK 221731Z 2218/2318 13006KT 6SM HZ SCT045 BKN120
     FM230200 13008KT 6SM HZ OVC045
     FM230600 14012KT 4SM BR VCSH SCT025 OVC035
      TEMPO 2311/2315 4SM -SHRA BR SCT015 OVC025
     FM231500 16010G18KT 5SM BR VCSH SCT008 OVC012=

USA.gov is the U.S. government's official web portal to all federal, state and local government web resources and services.